sensor_id;sensor_type;location;lat;lon;timestamp;P1;durP1;ratioP1;P2;durP2;ratioP2
81170;SDS011;70644;44.818;20.478;2024-01-16T00:02:22;5.70;;;4.22;;
81170;SDS011;70644;44.818;20.478;2024-01-16T00:04:48;4.68;;;3.55;;
81170;SDS011;70644;44.818;20.478;2024-01-16T00:07:14;5.50;;;4.00;;
81170;SDS011;70644;44.818;20.478;2024-01-16T00:09:40;4.85;;;3.70;;
81170;SDS011;70644;44.818;20.478;2024-01-16T00:12:06;4.63;;;3.65;;
81170;SDS011;70644;44.818;20.478;2024-01-16T00:14:36;5.00;;;4.00;;
81170;SDS011;70644;44.818;20.478;2024-01-16T00:17:02;4.50;;;3.63;;
81170;SDS011;70644;44.818;20.478;2024-01-16T00:19:28;4.60;;;3.50;;
81170;SDS011;70644;44.818;20.478;2024-01-16T00:21:55;4.63;;;3.50;;
81170;SDS011;70644;44.818;20.478;2024-01-16T00:24:21;5.20;;;3.95;;
81170;SDS011;70644;44.818;20.478;2024-01-16T00:26:48;4.85;;;4.00;;
81170;SDS011;70644;44.818;20.478;2024-01-16T00:29:15;4.53;;;3.70;;
81170;SDS011;70644;44.818;20.478;2024-01-16T00:31:41;4.55;;;3.38;;
81170;SDS011;70644;44.818;20.478;2024-01-16T00:34:07;5.05;;;3.75;;
81170;SDS011;70644;44.818;20.478;2024-01-16T00:36:34;4.60;;;3.70;;
81170;SDS011;70644;44.818;20.478;2024-01-16T00:39:00;4.30;;;3.30;;
81170;SDS011;70644;44.818;20.478;2024-01-16T00:41:27;5.63;;;4.03;;
81170;SDS011;70644;44.818;20.478;2024-01-16T00:43:53;4.80;;;4.10;;
81170;SDS011;70644;44.818;20.478;2024-01-16T00:46:20;5.10;;;3.90;;
81170;SDS011;70644;44.818;20.478;2024-01-16T00:48:46;4.78;;;3.72;;
81170;SDS011;70644;44.818;20.478;2024-01-16T00:51:13;4.70;;;3.72;;
81170;SDS011;70644;44.818;20.478;2024-01-16T00:53:42;4.22;;;3.50;;
81170;SDS011;70644;44.818;20.478;2024-01-16T00:56:09;4.20;;;3.50;;
81170;SDS011;70644;44.818;20.478;2024-01-16T00:58:35;4.97;;;3.90;;
81170;SDS011;70644;44.818;20.478;2024-01-16T01:01:01;4.38;;;3.58;;
81170;SDS011;70644;44.818;20.478;2024-01-16T01:03:27;4.65;;;3.53;;
81170;SDS011;70644;44.818;20.478;2024-01-16T01:05:54;4.47;;;3.35;;
81170;SDS011;70644;44.818;20.478;2024-01-16T01:08:20;4.70;;;3.78;;
81170;SDS011;70644;44.818;20.478;2024-01-16T01:10:46;5.03;;;3.40;;
81170;SDS011;70644;44.818;20.478;2024-01-16T01:13:12;4.75;;;3.60;;
81170;SDS011;70644;44.818;20.478;2024-01-16T01:15:39;4.47;;;3.30;;
81170;SDS011;70644;44.818;20.478;2024-01-16T01:18:05;4.63;;;3.30;;
81170;SDS011;70644;44.818;20.478;2024-01-16T01:20:31;4.25;;;3.40;;
81170;SDS011;70644;44.818;20.478;2024-01-16T01:22:58;3.92;;;3.20;;
81170;SDS011;70644;44.818;20.478;2024-01-16T01:25:25;4.47;;;3.40;;
81170;SDS011;70644;44.818;20.478;2024-01-16T01:27:51;3.83;;;3.35;;
81170;SDS011;70644;44.818;20.478;2024-01-16T01:30:17;4.28;;;3.40;;
81170;SDS011;70644;44.818;20.478;2024-01-16T01:32:43;4.15;;;3.25;;
81170;SDS011;70644;44.818;20.478;2024-01-16T01:35:09;4.47;;;3.30;;
81170;SDS011;70644;44.818;20.478;2024-01-16T01:37:36;4.10;;;3.35;;
81170;SDS011;70644;44.818;20.478;2024-01-16T01:40:03;4.40;;;3.30;;
81170;SDS011;70644;44.818;20.478;2024-01-16T01:42:29;4.07;;;3.17;;
81170;SDS011;70644;44.818;20.478;2024-01-16T01:44:55;4.13;;;3.20;;
81170;SDS011;70644;44.818;20.478;2024-01-16T01:47:21;4.03;;;3.17;;
81170;SDS011;70644;44.818;20.478;2024-01-16T01:49:48;3.85;;;3.03;;
81170;SDS011;70644;44.818;20.478;2024-01-16T01:52:14;4.43;;;3.00;;
81170;SDS011;70644;44.818;20.478;2024-01-16T01:54:40;3.47;;;2.78;;
81170;SDS011;70644;44.818;20.478;2024-01-16T01:57:07;4.03;;;3.10;;
81170;SDS011;70644;44.818;20.478;2024-01-16T01:59:34;3.90;;;3.15;;
81170;SDS011;70644;44.818;20.478;2024-01-16T02:02:00;4.13;;;3.00;;
81170;SDS011;70644;44.818;20.478;2024-01-16T02:04:27;4.50;;;3.20;;
81170;SDS011;70644;44.818;20.478;2024-01-16T02:06:53;3.53;;;2.83;;
81170;SDS011;70644;44.818;20.478;2024-01-16T02:09:21;4.20;;;2.90;;
81170;SDS011;70644;44.818;20.478;2024-01-16T02:11:47;3.88;;;3.20;;
81170;SDS011;70644;44.818;20.478;2024-01-16T02:14:13;4.43;;;3.28;;
81170;SDS011;70644;44.818;20.478;2024-01-16T02:16:40;4.25;;;3.00;;
81170;SDS011;70644;44.818;20.478;2024-01-16T02:19:07;4.40;;;3.40;;
81170;SDS011;70644;44.818;20.478;2024-01-16T02:21:36;4.10;;;3.33;;
81170;SDS011;70644;44.818;20.478;2024-01-16T02:24:03;3.63;;;3.10;;
81170;SDS011;70644;44.818;20.478;2024-01-16T02:26:31;4.32;;;3.25;;
81170;SDS011;70644;44.818;20.478;2024-01-16T02:28:57;3.58;;;2.90;;
81170;SDS011;70644;44.818;20.478;2024-01-16T02:31:23;3.92;;;3.05;;
81170;SDS011;70644;44.818;20.478;2024-01-16T02:33:49;4.10;;;3.30;;
81170;SDS011;70644;44.818;20.478;2024-01-16T02:36:15;3.70;;;2.80;;
81170;SDS011;70644;44.818;20.478;2024-01-16T02:38:41;3.83;;;2.88;;
81170;SDS011;70644;44.818;20.478;2024-01-16T02:41:08;4.05;;;3.03;;
81170;SDS011;70644;44.818;20.478;2024-01-16T02:43:34;4.53;;;3.00;;
81170;SDS011;70644;44.818;20.478;2024-01-16T02:46:00;3.80;;;2.90;;
81170;SDS011;70644;44.818;20.478;2024-01-16T02:48:26;3.53;;;2.60;;
81170;SDS011;70644;44.818;20.478;2024-01-16T02:50:52;3.83;;;2.97;;
81170;SDS011;70644;44.818;20.478;2024-01-16T02:53:18;3.70;;;3.00;;
81170;SDS011;70644;44.818;20.478;2024-01-16T02:55:44;3.70;;;2.90;;
81170;SDS011;70644;44.818;20.478;2024-01-16T02:58:10;3.70;;;2.92;;
81170;SDS011;70644;44.818;20.478;2024-01-16T03:00:36;3.50;;;3.10;;
81170;SDS011;70644;44.818;20.478;2024-01-16T03:03:02;3.67;;;2.72;;
81170;SDS011;70644;44.818;20.478;2024-01-16T03:05:29;3.60;;;2.67;;
81170;SDS011;70644;44.818;20.478;2024-01-16T03:07:55;3.72;;;2.80;;
81170;SDS011;70644;44.818;20.478;2024-01-16T03:10:21;3.40;;;2.83;;
81170;SDS011;70644;44.818;20.478;2024-01-16T03:12:47;3.97;;;2.80;;
81170;SDS011;70644;44.818;20.478;2024-01-16T03:15:13;3.60;;;2.63;;
81170;SDS011;70644;44.818;20.478;2024-01-16T03:17:39;4.18;;;2.92;;
81170;SDS011;70644;44.818;20.478;2024-01-16T03:20:06;3.78;;;2.55;;
81170;SDS011;70644;44.818;20.478;2024-01-16T03:22:32;3.40;;;2.65;;
81170;SDS011;70644;44.818;20.478;2024-01-16T03:24:58;4.32;;;3.05;;
81170;SDS011;70644;44.818;20.478;2024-01-16T03:27:25;3.60;;;2.83;;
81170;SDS011;70644;44.818;20.478;2024-01-16T03:29:51;3.33;;;2.88;;
81170;SDS011;70644;44.818;20.478;2024-01-16T03:32:17;3.53;;;2.67;;
81170;SDS011;70644;44.818;20.478;2024-01-16T03:34:44;3.50;;;2.67;;
81170;SDS011;70644;44.818;20.478;2024-01-16T03:37:10;3.35;;;2.80;;
81170;SDS011;70644;44.818;20.478;2024-01-16T03:39:36;3.33;;;2.80;;
81170;SDS011;70644;44.818;20.478;2024-01-16T03:42:02;3.92;;;2.80;;
81170;SDS011;70644;44.818;20.478;2024-01-16T03:44:28;3.50;;;2.75;;
81170;SDS011;70644;44.818;20.478;2024-01-16T03:46:54;3.47;;;2.72;;
81170;SDS011;70644;44.818;20.478;2024-01-16T03:49:20;3.60;;;2.65;;
81170;SDS011;70644;44.818;20.478;2024-01-16T03:51:46;3.58;;;2.70;;
81170;SDS011;70644;44.818;20.478;2024-01-16T03:54:12;3.35;;;2.63;;
81170;SDS011;70644;44.818;20.478;2024-01-16T03:56:39;3.70;;;2.80;;
81170;SDS011;70644;44.818;20.478;2024-01-16T03:59:05;3.95;;;3.05;;
81170;SDS011;70644;44.818;20.478;2024-01-16T04:01:32;3.20;;;2.42;;
81170;SDS011;70644;44.818;20.478;2024-01-16T04:03:58;3.40;;;2.70;;
81170;SDS011;70644;44.818;20.478;2024-01-16T04:06:24;3.40;;;2.60;;
81170;SDS011;70644;44.818;20.478;2024-01-16T04:08:52;3.90;;;2.63;;
81170;SDS011;70644;44.818;20.478;2024-01-16T04:11:18;4.00;;;2.60;;
81170;SDS011;70644;44.818;20.478;2024-01-16T04:13:44;3.80;;;2.92;;
81170;SDS011;70644;44.818;20.478;2024-01-16T04:16:11;3.30;;;2.60;;
81170;SDS011;70644;44.818;20.478;2024-01-16T04:18:39;3.53;;;3.03;;
81170;SDS011;70644;44.818;20.478;2024-01-16T04:21:05;3.28;;;2.53;;
81170;SDS011;70644;44.818;20.478;2024-01-16T04:23:32;3.70;;;2.70;;
81170;SDS011;70644;44.818;20.478;2024-01-16T04:25:58;3.67;;;2.83;;
81170;SDS011;70644;44.818;20.478;2024-01-16T04:28:24;3.50;;;2.55;;
81170;SDS011;70644;44.818;20.478;2024-01-16T04:30:51;3.17;;;2.30;;
81170;SDS011;70644;44.818;20.478;2024-01-16T04:33:17;3.60;;;2.50;;
81170;SDS011;70644;44.818;20.478;2024-01-16T04:35:43;2.97;;;2.20;;
81170;SDS011;70644;44.818;20.478;2024-01-16T04:38:09;3.00;;;2.40;;
81170;SDS011;70644;44.818;20.478;2024-01-16T04:40:35;3.30;;;2.60;;
81170;SDS011;70644;44.818;20.478;2024-01-16T04:43:01;3.20;;;2.53;;
81170;SDS011;70644;44.818;20.478;2024-01-16T04:45:27;3.30;;;2.42;;
81170;SDS011;70644;44.818;20.478;2024-01-16T04:47:54;3.53;;;2.60;;
81170;SDS011;70644;44.818;20.478;2024-01-16T04:50:20;3.22;;;2.70;;
81170;SDS011;70644;44.818;20.478;2024-01-16T04:52:48;3.10;;;2.30;;
81170;SDS011;70644;44.818;20.478;2024-01-16T04:55:14;3.13;;;2.40;;
81170;SDS011;70644;44.818;20.478;2024-01-16T04:57:40;3.00;;;2.50;;
81170;SDS011;70644;44.818;20.478;2024-01-16T05:00:06;2.80;;;2.30;;
81170;SDS011;70644;44.818;20.478;2024-01-16T05:02:33;3.20;;;2.60;;
81170;SDS011;70644;44.818;20.478;2024-01-16T05:04:59;3.30;;;2.42;;
81170;SDS011;70644;44.818;20.478;2024-01-16T05:07:25;2.95;;;2.35;;
81170;SDS011;70644;44.818;20.478;2024-01-16T05:09:51;3.10;;;2.38;;
81170;SDS011;70644;44.818;20.478;2024-01-16T05:12:18;3.25;;;2.30;;
81170;SDS011;70644;44.818;20.478;2024-01-16T05:14:45;3.13;;;2.42;;
81170;SDS011;70644;44.818;20.478;2024-01-16T05:17:11;3.00;;;2.25;;
81170;SDS011;70644;44.818;20.478;2024-01-16T05:19:37;3.92;;;2.50;;
81170;SDS011;70644;44.818;20.478;2024-01-16T05:22:03;3.13;;;2.25;;
81170;SDS011;70644;44.818;20.478;2024-01-16T05:24:30;2.97;;;2.40;;
81170;SDS011;70644;44.818;20.478;2024-01-16T05:26:56;3.00;;;2.22;;
81170;SDS011;70644;44.818;20.478;2024-01-16T05:29:22;3.50;;;2.17;;
81170;SDS011;70644;44.818;20.478;2024-01-16T05:31:48;2.80;;;2.30;;
81170;SDS011;70644;44.818;20.478;2024-01-16T05:34:14;3.42;;;2.50;;
81170;SDS011;70644;44.818;20.478;2024-01-16T05:36:41;3.25;;;2.45;;
81170;SDS011;70644;44.818;20.478;2024-01-16T05:39:07;3.00;;;2.10;;
81170;SDS011;70644;44.818;20.478;2024-01-16T05:41:34;3.28;;;2.60;;
81170;SDS011;70644;44.818;20.478;2024-01-16T05:44:00;3.05;;;2.30;;
81170;SDS011;70644;44.818;20.478;2024-01-16T05:48:55;3.30;;;2.50;;
81170;SDS011;70644;44.818;20.478;2024-01-16T05:51:22;3.47;;;2.55;;
81170;SDS011;70644;44.818;20.478;2024-01-16T05:53:48;3.00;;;2.45;;
81170;SDS011;70644;44.818;20.478;2024-01-16T05:56:14;3.05;;;2.20;;
81170;SDS011;70644;44.818;20.478;2024-01-16T05:58:40;3.13;;;2.30;;
81170;SDS011;70644;44.818;20.478;2024-01-16T06:01:06;2.80;;;2.10;;
81170;SDS011;70644;44.818;20.478;2024-01-16T06:03:32;3.08;;;2.50;;
81170;SDS011;70644;44.818;20.478;2024-01-16T06:05:58;2.58;;;1.98;;
81170;SDS011;70644;44.818;20.478;2024-01-16T06:08:24;3.58;;;2.60;;
81170;SDS011;70644;44.818;20.478;2024-01-16T06:10:52;2.85;;;2.10;;
81170;SDS011;70644;44.818;20.478;2024-01-16T06:13:18;2.90;;;2.38;;
81170;SDS011;70644;44.818;20.478;2024-01-16T06:15:44;3.40;;;2.75;;
81170;SDS011;70644;44.818;20.478;2024-01-16T06:18:10;2.95;;;2.28;;
81170;SDS011;70644;44.818;20.478;2024-01-16T06:20:36;2.92;;;2.10;;
81170;SDS011;70644;44.818;20.478;2024-01-16T06:23:02;3.45;;;2.60;;
81170;SDS011;70644;44.818;20.478;2024-01-16T06:25:29;2.95;;;2.20;;
81170;SDS011;70644;44.818;20.478;2024-01-16T06:27:55;3.80;;;2.70;;
81170;SDS011;70644;44.818;20.478;2024-01-16T06:30:21;3.40;;;2.50;;
81170;SDS011;70644;44.818;20.478;2024-01-16T06:32:50;3.03;;;2.20;;
81170;SDS011;70644;44.818;20.478;2024-01-16T06:35:16;2.97;;;2.40;;
81170;SDS011;70644;44.818;20.478;2024-01-16T06:37:43;3.33;;;2.40;;
81170;SDS011;70644;44.818;20.478;2024-01-16T06:40:09;2.90;;;2.40;;
81170;SDS011;70644;44.818;20.478;2024-01-16T06:42:35;3.08;;;2.40;;
81170;SDS011;70644;44.818;20.478;2024-01-16T06:45:04;3.05;;;2.25;;
81170;SDS011;70644;44.818;20.478;2024-01-16T06:47:30;3.35;;;2.25;;
81170;SDS011;70644;44.818;20.478;2024-01-16T06:49:57;2.92;;;2.08;;
81170;SDS011;70644;44.818;20.478;2024-01-16T06:52:24;3.03;;;2.45;;
81170;SDS011;70644;44.818;20.478;2024-01-16T06:54:50;3.30;;;2.55;;
81170;SDS011;70644;44.818;20.478;2024-01-16T06:57:16;3.33;;;2.42;;
81170;SDS011;70644;44.818;20.478;2024-01-16T06:59:42;3.38;;;2.50;;
81170;SDS011;70644;44.818;20.478;2024-01-16T07:02:08;3.20;;;2.40;;
81170;SDS011;70644;44.818;20.478;2024-01-16T07:04:35;2.72;;;2.00;;
81170;SDS011;70644;44.818;20.478;2024-01-16T07:07:01;3.15;;;2.50;;
81170;SDS011;70644;44.818;20.478;2024-01-16T07:09:28;3.08;;;2.42;;
81170;SDS011;70644;44.818;20.478;2024-01-16T07:11:54;3.17;;;2.05;;
81170;SDS011;70644;44.818;20.478;2024-01-16T07:14:20;3.00;;;2.30;;
81170;SDS011;70644;44.818;20.478;2024-01-16T07:16:46;2.95;;;2.13;;
81170;SDS011;70644;44.818;20.478;2024-01-16T07:19:12;3.25;;;2.40;;
81170;SDS011;70644;44.818;20.478;2024-01-16T07:21:38;3.63;;;2.30;;
81170;SDS011;70644;44.818;20.478;2024-01-16T07:24:05;3.85;;;2.40;;
81170;SDS011;70644;44.818;20.478;2024-01-16T07:26:31;4.28;;;2.40;;
81170;SDS011;70644;44.818;20.478;2024-01-16T07:28:57;2.80;;;2.50;;
81170;SDS011;70644;44.818;20.478;2024-01-16T07:31:23;4.82;;;2.70;;
81170;SDS011;70644;44.818;20.478;2024-01-16T07:33:49;3.08;;;2.30;;
81170;SDS011;70644;44.818;20.478;2024-01-16T07:36:15;3.20;;;2.28;;
81170;SDS011;70644;44.818;20.478;2024-01-16T07:38:42;4.22;;;2.42;;
81170;SDS011;70644;44.818;20.478;2024-01-16T07:41:08;3.60;;;2.60;;
81170;SDS011;70644;44.818;20.478;2024-01-16T07:43:34;5.05;;;2.60;;
81170;SDS011;70644;44.818;20.478;2024-01-16T07:46:01;3.90;;;2.40;;
81170;SDS011;70644;44.818;20.478;2024-01-16T07:48:28;3.35;;;2.67;;
81170;SDS011;70644;44.818;20.478;2024-01-16T07:50:54;2.90;;;2.53;;
81170;SDS011;70644;44.818;20.478;2024-01-16T07:53:20;3.88;;;2.33;;
81170;SDS011;70644;44.818;20.478;2024-01-16T07:55:46;3.35;;;2.30;;
81170;SDS011;70644;44.818;20.478;2024-01-16T07:58:13;4.45;;;2.38;;
81170;SDS011;70644;44.818;20.478;2024-01-16T08:00:39;3.83;;;2.50;;
81170;SDS011;70644;44.818;20.478;2024-01-16T08:03:07;3.25;;;2.42;;
81170;SDS011;70644;44.818;20.478;2024-01-16T08:05:36;3.65;;;2.20;;
81170;SDS011;70644;44.818;20.478;2024-01-16T08:08:02;3.95;;;2.45;;
81170;SDS011;70644;44.818;20.478;2024-01-16T08:10:28;3.90;;;2.30;;
81170;SDS011;70644;44.818;20.478;2024-01-16T08:12:54;3.95;;;2.30;;
81170;SDS011;70644;44.818;20.478;2024-01-16T08:15:20;3.88;;;2.30;;
81170;SDS011;70644;44.818;20.478;2024-01-16T08:17:47;6.18;;;2.63;;
81170;SDS011;70644;44.818;20.478;2024-01-16T08:20:13;3.10;;;2.30;;
81170;SDS011;70644;44.818;20.478;2024-01-16T08:22:39;3.28;;;2.05;;
81170;SDS011;70644;44.818;20.478;2024-01-16T08:25:05;4.03;;;2.50;;
81170;SDS011;70644;44.818;20.478;2024-01-16T08:27:31;4.40;;;2.70;;
81170;SDS011;70644;44.818;20.478;2024-01-16T08:29:58;6.35;;;2.90;;
81170;SDS011;70644;44.818;20.478;2024-01-16T08:32:24;10.00;;;3.10;;
81170;SDS011;70644;44.818;20.478;2024-01-16T08:34:50;6.50;;;2.80;;
81170;SDS011;70644;44.818;20.478;2024-01-16T08:37:17;9.40;;;2.80;;
81170;SDS011;70644;44.818;20.478;2024-01-16T08:39:43;7.32;;;2.53;;
81170;SDS011;70644;44.818;20.478;2024-01-16T08:42:09;3.70;;;2.63;;
81170;SDS011;70644;44.818;20.478;2024-01-16T08:44:39;6.28;;;2.70;;
81170;SDS011;70644;44.818;20.478;2024-01-16T08:47:05;7.70;;;2.45;;
81170;SDS011;70644;44.818;20.478;2024-01-16T08:49:32;6.60;;;2.85;;
81170;SDS011;70644;44.818;20.478;2024-01-16T08:51:58;4.57;;;2.47;;
81170;SDS011;70644;44.818;20.478;2024-01-16T08:54:24;6.78;;;2.60;;
81170;SDS011;70644;44.818;20.478;2024-01-16T08:56:54;6.13;;;2.42;;
81170;SDS011;70644;44.818;20.478;2024-01-16T08:59:20;4.22;;;2.38;;
81170;SDS011;70644;44.818;20.478;2024-01-16T09:01:46;5.15;;;2.47;;
81170;SDS011;70644;44.818;20.478;2024-01-16T09:04:12;6.78;;;2.50;;
81170;SDS011;70644;44.818;20.478;2024-01-16T09:06:38;5.13;;;2.67;;
81170;SDS011;70644;44.818;20.478;2024-01-16T09:09:04;5.38;;;2.58;;
81170;SDS011;70644;44.818;20.478;2024-01-16T09:11:30;6.10;;;2.83;;
81170;SDS011;70644;44.818;20.478;2024-01-16T09:13:57;4.50;;;2.70;;
81170;SDS011;70644;44.818;20.478;2024-01-16T09:16:23;5.70;;;2.47;;
81170;SDS011;70644;44.818;20.478;2024-01-16T09:18:49;4.68;;;2.40;;
81170;SDS011;70644;44.818;20.478;2024-01-16T09:21:15;4.32;;;2.58;;
81170;SDS011;70644;44.818;20.478;2024-01-16T09:23:41;5.05;;;2.40;;
81170;SDS011;70644;44.818;20.478;2024-01-16T09:26:09;4.95;;;2.40;;
81170;SDS011;70644;44.818;20.478;2024-01-16T09:28:35;3.33;;;2.25;;
81170;SDS011;70644;44.818;20.478;2024-01-16T09:31:01;3.95;;;2.33;;
81170;SDS011;70644;44.818;20.478;2024-01-16T09:33:28;4.32;;;2.40;;
81170;SDS011;70644;44.818;20.478;2024-01-16T09:35:54;5.60;;;2.40;;
81170;SDS011;70644;44.818;20.478;2024-01-16T09:38:20;5.10;;;2.28;;
81170;SDS011;70644;44.818;20.478;2024-01-16T09:40:47;3.85;;;2.13;;
81170;SDS011;70644;44.818;20.478;2024-01-16T09:43:13;3.90;;;1.98;;
81170;SDS011;70644;44.818;20.478;2024-01-16T09:45:39;3.88;;;2.47;;
81170;SDS011;70644;44.818;20.478;2024-01-16T09:48:05;3.78;;;2.60;;
81170;SDS011;70644;44.818;20.478;2024-01-16T09:50:33;5.65;;;2.25;;
81170;SDS011;70644;44.818;20.478;2024-01-16T09:52:59;3.40;;;2.60;;
81170;SDS011;70644;44.818;20.478;2024-01-16T09:55:25;4.63;;;2.60;;
81170;SDS011;70644;44.818;20.478;2024-01-16T09:57:52;3.90;;;2.30;;
81170;SDS011;70644;44.818;20.478;2024-01-16T10:00:18;3.97;;;2.20;;
81170;SDS011;70644;44.818;20.478;2024-01-16T10:02:45;4.15;;;2.42;;
81170;SDS011;70644;44.818;20.478;2024-01-16T10:05:12;3.42;;;2.55;;
81170;SDS011;70644;44.818;20.478;2024-01-16T10:07:39;4.57;;;3.25;;
81170;SDS011;70644;44.818;20.478;2024-01-16T10:10:06;6.32;;;3.30;;
81170;SDS011;70644;44.818;20.478;2024-01-16T10:12:36;5.70;;;2.80;;
81170;SDS011;70644;44.818;20.478;2024-01-16T10:15:04;4.53;;;2.58;;
81170;SDS011;70644;44.818;20.478;2024-01-16T10:17:37;5.05;;;2.97;;
81170;SDS011;70644;44.818;20.478;2024-01-16T10:20:04;4.82;;;2.78;;
81170;SDS011;70644;44.818;20.478;2024-01-16T10:22:30;4.75;;;2.70;;
81170;SDS011;70644;44.818;20.478;2024-01-16T10:25:17;6.10;;;2.53;;
81170;SDS011;70644;44.818;20.478;2024-01-16T10:27:45;7.38;;;2.63;;
81170;SDS011;70644;44.818;20.478;2024-01-16T10:30:11;6.45;;;2.60;;
81170;SDS011;70644;44.818;20.478;2024-01-16T10:32:38;4.47;;;2.47;;
81170;SDS011;70644;44.818;20.478;2024-01-16T10:35:05;4.25;;;2.88;;
81170;SDS011;70644;44.818;20.478;2024-01-16T10:40:08;5.45;;;2.35;;
81170;SDS011;70644;44.818;20.478;2024-01-16T10:45:06;6.45;;;2.63;;
81170;SDS011;70644;44.818;20.478;2024-01-16T10:47:32;5.15;;;2.40;;
81170;SDS011;70644;44.818;20.478;2024-01-16T10:50:05;3.45;;;2.17;;
81170;SDS011;70644;44.818;20.478;2024-01-16T10:52:34;4.55;;;2.45;;
81170;SDS011;70644;44.818;20.478;2024-01-16T10:55:03;3.15;;;2.25;;
81170;SDS011;70644;44.818;20.478;2024-01-16T10:57:32;3.47;;;2.40;;
81170;SDS011;70644;44.818;20.478;2024-01-16T11:00:03;3.05;;;2.10;;
81170;SDS011;70644;44.818;20.478;2024-01-16T11:02:43;8.68;;;2.50;;
81170;SDS011;70644;44.818;20.478;2024-01-16T11:05:10;4.25;;;2.50;;
81170;SDS011;70644;44.818;20.478;2024-01-16T11:07:37;2.97;;;2.33;;
81170;SDS011;70644;44.818;20.478;2024-01-16T11:10:05;8.20;;;2.08;;
81170;SDS011;70644;44.818;20.478;2024-01-16T11:12:33;3.38;;;2.28;;
81170;SDS011;70644;44.818;20.478;2024-01-16T11:15:00;4.10;;;2.22;;
81170;SDS011;70644;44.818;20.478;2024-01-16T11:17:27;3.85;;;2.28;;
81170;SDS011;70644;44.818;20.478;2024-01-16T11:19:54;3.35;;;2.30;;
81170;SDS011;70644;44.818;20.478;2024-01-16T11:22:21;4.15;;;2.47;;
81170;SDS011;70644;44.818;20.478;2024-01-16T11:25:06;3.25;;;2.17;;
81170;SDS011;70644;44.818;20.478;2024-01-16T11:27:32;3.38;;;1.90;;
81170;SDS011;70644;44.818;20.478;2024-01-16T11:29:59;3.78;;;2.20;;
81170;SDS011;70644;44.818;20.478;2024-01-16T11:32:35;3.17;;;1.95;;
81170;SDS011;70644;44.818;20.478;2024-01-16T11:35:01;2.80;;;2.10;;
81170;SDS011;70644;44.818;20.478;2024-01-16T11:37:28;4.15;;;2.15;;
81170;SDS011;70644;44.818;20.478;2024-01-16T11:42:39;3.13;;;2.03;;
81170;SDS011;70644;44.818;20.478;2024-01-16T11:45:08;4.72;;;2.28;;
81170;SDS011;70644;44.818;20.478;2024-01-16T11:47:34;3.78;;;2.17;;
81170;SDS011;70644;44.818;20.478;2024-01-16T11:50:10;3.13;;;2.00;;
81170;SDS011;70644;44.818;20.478;2024-01-16T11:52:45;2.75;;;2.00;;
81170;SDS011;70644;44.818;20.478;2024-01-16T11:55:28;4.50;;;2.20;;
81170;SDS011;70644;44.818;20.478;2024-01-16T12:00:36;2.72;;;1.92;;
81170;SDS011;70644;44.818;20.478;2024-01-16T12:03:03;4.82;;;2.47;;
81170;SDS011;70644;44.818;20.478;2024-01-16T12:05:31;2.92;;;1.85;;
81170;SDS011;70644;44.818;20.478;2024-01-16T12:07:57;4.07;;;2.13;;
81170;SDS011;70644;44.818;20.478;2024-01-16T12:10:24;4.47;;;2.28;;
81170;SDS011;70644;44.818;20.478;2024-01-16T12:12:51;3.75;;;2.30;;
81170;SDS011;70644;44.818;20.478;2024-01-16T12:15:18;3.83;;;2.80;;
81170;SDS011;70644;44.818;20.478;2024-01-16T12:17:57;3.85;;;2.47;;
81170;SDS011;70644;44.818;20.478;2024-01-16T12:20:24;3.63;;;2.78;;
81170;SDS011;70644;44.818;20.478;2024-01-16T12:22:54;5.07;;;3.10;;
81170;SDS011;70644;44.818;20.478;2024-01-16T12:25:21;6.15;;;3.35;;
81170;SDS011;70644;44.818;20.478;2024-01-16T12:27:53;7.05;;;3.15;;
81170;SDS011;70644;44.818;20.478;2024-01-16T12:30:20;6.15;;;3.25;;
81170;SDS011;70644;44.818;20.478;2024-01-16T12:32:46;5.30;;;3.53;;
81170;SDS011;70644;44.818;20.478;2024-01-16T12:35:12;6.05;;;3.90;;
81170;SDS011;70644;44.818;20.478;2024-01-16T12:37:57;6.43;;;3.83;;
81170;SDS011;70644;44.818;20.478;2024-01-16T12:40:23;5.85;;;3.78;;
81170;SDS011;70644;44.818;20.478;2024-01-16T12:42:50;6.20;;;4.30;;
81170;SDS011;70644;44.818;20.478;2024-01-16T12:45:16;9.00;;;4.78;;
81170;SDS011;70644;44.818;20.478;2024-01-16T12:47:43;5.93;;;4.63;;
81170;SDS011;70644;44.818;20.478;2024-01-16T12:50:10;7.15;;;4.57;;
81170;SDS011;70644;44.818;20.478;2024-01-16T12:52:36;6.30;;;4.43;;
81170;SDS011;70644;44.818;20.478;2024-01-16T12:55:02;6.88;;;4.60;;
81170;SDS011;70644;44.818;20.478;2024-01-16T12:57:33;7.28;;;4.80;;
81170;SDS011;70644;44.818;20.478;2024-01-16T12:59:59;7.30;;;4.47;;
81170;SDS011;70644;44.818;20.478;2024-01-16T13:02:29;5.35;;;4.47;;
81170;SDS011;70644;44.818;20.478;2024-01-16T13:04:58;5.88;;;4.57;;
81170;SDS011;70644;44.818;20.478;2024-01-16T13:07:27;5.90;;;4.70;;
81170;SDS011;70644;44.818;20.478;2024-01-16T13:12:21;8.90;;;4.57;;
81170;SDS011;70644;44.818;20.478;2024-01-16T13:14:47;5.95;;;4.50;;
81170;SDS011;70644;44.818;20.478;2024-01-16T13:17:13;5.40;;;3.80;;
81170;SDS011;70644;44.818;20.478;2024-01-16T13:19:40;4.88;;;4.07;;
81170;SDS011;70644;44.818;20.478;2024-01-16T13:22:07;6.20;;;4.30;;
81170;SDS011;70644;44.818;20.478;2024-01-16T13:24:33;6.65;;;4.28;;
81170;SDS011;70644;44.818;20.478;2024-01-16T13:26:59;5.13;;;4.18;;
81170;SDS011;70644;44.818;20.478;2024-01-16T13:29:25;6.78;;;4.18;;
81170;SDS011;70644;44.818;20.478;2024-01-16T13:31:51;6.13;;;3.75;;
81170;SDS011;70644;44.818;20.478;2024-01-16T13:34:20;7.03;;;4.22;;
81170;SDS011;70644;44.818;20.478;2024-01-16T13:36:46;5.78;;;4.00;;
81170;SDS011;70644;44.818;20.478;2024-01-16T13:39:14;6.13;;;3.67;;
81170;SDS011;70644;44.818;20.478;2024-01-16T13:41:41;4.97;;;3.83;;
81170;SDS011;70644;44.818;20.478;2024-01-16T13:44:07;5.53;;;4.03;;
81170;SDS011;70644;44.818;20.478;2024-01-16T13:46:33;5.43;;;3.95;;
81170;SDS011;70644;44.818;20.478;2024-01-16T13:48:59;4.75;;;3.97;;
81170;SDS011;70644;44.818;20.478;2024-01-16T13:51:25;5.50;;;3.88;;
81170;SDS011;70644;44.818;20.478;2024-01-16T13:53:52;6.32;;;3.70;;
81170;SDS011;70644;44.818;20.478;2024-01-16T13:56:18;7.18;;;4.03;;
81170;SDS011;70644;44.818;20.478;2024-01-16T13:58:44;5.85;;;3.55;;
81170;SDS011;70644;44.818;20.478;2024-01-16T14:01:10;4.80;;;3.33;;
81170;SDS011;70644;44.818;20.478;2024-01-16T14:03:36;5.65;;;3.60;;
81170;SDS011;70644;44.818;20.478;2024-01-16T14:06:03;4.93;;;3.65;;
81170;SDS011;70644;44.818;20.478;2024-01-16T14:08:29;6.15;;;3.58;;
81170;SDS011;70644;44.818;20.478;2024-01-16T14:10:55;5.22;;;3.28;;
81170;SDS011;70644;44.818;20.478;2024-01-16T14:13:21;5.43;;;3.42;;
81170;SDS011;70644;44.818;20.478;2024-01-16T14:15:50;4.95;;;3.60;;
81170;SDS011;70644;44.818;20.478;2024-01-16T14:18:16;5.18;;;3.50;;
81170;SDS011;70644;44.818;20.478;2024-01-16T14:20:42;5.50;;;3.35;;
81170;SDS011;70644;44.818;20.478;2024-01-16T14:23:08;6.60;;;3.75;;
81170;SDS011;70644;44.818;20.478;2024-01-16T14:25:34;5.57;;;3.58;;
81170;SDS011;70644;44.818;20.478;2024-01-16T14:28:02;4.15;;;2.92;;
81170;SDS011;70644;44.818;20.478;2024-01-16T14:30:28;6.65;;;3.38;;
81170;SDS011;70644;44.818;20.478;2024-01-16T14:32:54;5.65;;;3.50;;
81170;SDS011;70644;44.818;20.478;2024-01-16T14:35:21;5.90;;;3.13;;
81170;SDS011;70644;44.818;20.478;2024-01-16T14:37:49;5.22;;;3.70;;
81170;SDS011;70644;44.818;20.478;2024-01-16T14:40:15;5.00;;;3.45;;
81170;SDS011;70644;44.818;20.478;2024-01-16T14:42:49;8.00;;;3.70;;
81170;SDS011;70644;44.818;20.478;2024-01-16T14:45:24;7.28;;;3.30;;
81170;SDS011;70644;44.818;20.478;2024-01-16T14:47:52;5.90;;;3.85;;